Time;durP1;ratioP1;P1;durP2;ratioP2;P2;SDS_P1;SDS_P2;PMS_P1;PMS_P2;Temp;Humidity;BMP_temperature;BMP_pressure;BME280_temperature;BME280_humidity;BME280_pressure;Samples;Min_cycle;Max_cycle;Signal;HPM_P1;HPM_P2
2021/04/27 00:01:33;;;;;;;19.30;11.20;;;;;;;0.90;61.15;100254.38;115357;1199;103140;-76
2021/04/27 00:04:20;;;;;;;18.88;10.73;;;;;;;0.91;61.18;100258.66;115320;1199;104186;-78
2021/04/27 00:07:06;;;;;;;17.73;9.87;;;;;;;0.91;61.00;100258.66;115338;1200;103117;-75
2021/04/27 00:09:52;;;;;;;19.77;10.53;;;;;;;0.89;61.04;100250.91;115259;1199;103593;-77
2021/04/27 00:12:39;;;;;;;17.33;10.77;;;;;;;0.89;60.78;100250.05;115514;1199;103040;-76
2021/04/27 00:15:27;;;;;;;15.45;9.85;;;;;;;0.89;61.13;100245.78;115256;1200;103168;-76
2021/04/27 00:18:14;;;;;;;18.45;10.95;;;;;;;0.92;61.78;100247.53;115567;1199;102351;-76
2021/04/27 00:21:00;;;;;;;18.40;10.80;;;;;;;0.92;61.81;100244.11;115508;1200;102970;-76
2021/04/27 00:23:47;;;;;;;22.17;11.47;;;;;;;0.91;61.26;100248.39;115332;1199;103155;-76
2021/04/27 00:26:34;;;;;;;20.10;11.80;;;;;;;0.91;61.37;100240.69;115344;1200;102992;-76
2021/04/27 00:29:20;;;;;;;17.63;11.13;;;;;;;0.89;61.90;100243.21;115359;1199;103037;-76
2021/04/27 00:32:06;;;;;;;21.17;12.23;;;;;;;0.89;62.39;100242.35;115340;1200;103185;-77
2021/04/27 00:34:53;;;;;;;20.83;12.40;;;;;;;0.88;62.34;100240.64;115231;1199;103003;-76
2021/04/27 00:37:39;;;;;;;20.57;12.07;;;;;;;0.87;61.89;100239.78;115345;1199;103130;-77
2021/04/27 00:40:27;;;;;;;19.95;12.38;;;;;;;0.89;61.87;100244.92;115532;1199;103267;-77
2021/04/27 00:43:13;;;;;;;18.63;12.23;;;;;;;0.89;62.36;100245.78;115524;1199;103105;-76
2021/04/27 00:46:00;;;;;;;22.57;13.27;;;;;;;0.88;62.66;100238.07;115335;1199;102995;-76
2021/04/27 00:48:46;;;;;;;23.50;13.50;;;;;;;0.87;62.39;100238.92;115347;1199;103104;-76
2021/04/27 00:51:34;;;;;;;25.77;15.10;;;;;;;0.85;63.10;100244.05;115331;1198;103060;-77
2021/04/27 00:54:20;;;;;;;23.95;15.10;;;;;;;0.85;62.96;100238.05;115349;1200;103069;-76
2021/04/27 00:57:06;;;;;;;27.80;15.70;;;;;;;0.80;62.58;100235.46;115315;1199;103009;-76
2021/04/27 00:59:55;;;;;;;21.00;13.33;;;;;;;0.77;62.27;100240.58;115315;1199;103362;-76
2021/04/27 01:02:41;;;;;;;25.40;13.90;;;;;;;0.74;62.58;100229.44;115305;1199;103072;-76
2021/04/27 01:05:30;;;;;;;23.73;13.93;;;;;;;0.71;62.72;100226.81;115551;1199;102977;-76
2021/04/27 01:08:34;;;;;;;24.53;13.87;;;;;;;0.67;63.17;100228.52;115342;1199;103134;-76
2021/04/27 01:11:45;;;;;;;22.37;13.60;;;;;;;0.64;63.28;100232.77;115354;1199;103114;-76
2021/04/27 01:14:35;;;;;;;20.83;13.10;;;;;;;0.60;63.43;100235.31;115432;1199;103139;-76
2021/04/27 01:17:24;;;;;;;22.43;13.67;;;;;;;0.56;63.18;100228.45;115318;1200;103178;-77
2021/04/27 01:20:28;;;;;;;20.80;13.25;;;;;;;0.51;64.05;100227.53;115579;1198;104287;-76
2021/04/27 01:23:56;;;;;;;22.43;13.20;;;;;;;0.46;63.64;100230.91;115258;1200;103105;-78
2021/04/27 01:26:46;;;;;;;19.23;12.83;;;;;;;0.39;64.12;100231.72;115375;1199;103056;-76
2021/04/27 01:29:34;;;;;;;20.50;11.85;;;;;;;0.34;64.03;100229.09;115302;1199;103193;-76
2021/04/27 01:32:21;;;;;;;22.20;13.23;;;;;;;0.29;63.58;100230.77;115320;1199;103172;-76
2021/04/27 01:35:11;;;;;;;20.60;12.80;;;;;;;0.27;64.02;100235.88;115493;1199;103114;-77
2021/04/27 01:38:24;;;;;;;23.17;13.50;;;;;;;0.23;64.57;100230.72;115378;1199;103008;-77
2021/04/27 01:41:11;;;;;;;20.55;12.45;;;;;;;0.21;64.69;100237.55;115528;1198;101887;-77
2021/04/27 01:44:00;;;;;;;22.90;14.03;;;;;;;0.16;64.70;100240.04;115364;1199;103076;-77
2021/04/27 01:46:47;;;;;;;19.53;12.50;;;;;;;0.14;64.77;100240.88;115314;1198;102998;-77
2021/04/27 01:49:34;;;;;;;21.35;13.30;;;;;;;0.11;64.86;100243.41;115507;1199;104387;-76
2021/04/27 01:52:39;;;;;;;25.10;15.05;;;;;;;0.09;64.90;100247.67;115371;1199;103034;-76
2021/04/27 01:55:26;;;;;;;26.63;13.30;;;;;;;0.05;64.85;100245.92;115565;1200;103299;-76
2021/04/27 01:58:13;;;;;;;23.07;14.27;;;;;;;0.04;65.45;100239.08;115305;1199;103075;-76
2021/04/27 02:01:00;;;;;;;19.13;12.80;;;;;;;-0.02;65.28;100235.58;115266;1199;103627;-76
2021/04/27 02:03:48;;;;;;;23.70;14.43;;;;;;;-0.02;65.28;100243.27;115311;1199;103576;-76
2021/04/27 02:06:34;;;;;;;22.85;13.90;;;;;;;-0.05;66.02;100243.25;115342;1197;103006;-77
2021/04/27 02:09:24;;;;;;;26.35;15.05;;;;;;;-0.08;65.37;100240.66;115336;1199;103557;-76
2021/04/27 02:12:18;;;;;;;21.40;13.60;;;;;;;-0.12;65.55;100238.05;115379;1199;103104;-77
2021/04/27 02:15:05;;;;;;;;;;;;;;;-0.16;66.02;100242.30;115347;1205;102876;-76
2021/04/27 02:18:01;;;;;;;21.00;12.60;;;;;;;-0.20;65.72;100237.95;115306;1199;103060;-76
2021/04/27 02:20:51;;;;;;;25.10;15.30;;;;;;;-0.22;66.21;100234.52;115362;1200;102995;-76
2021/04/27 02:24:09;;;;;;;21.53;13.00;;;;;;;-0.22;66.00;100231.09;115127;1199;103018;-76
2021/04/27 02:27:00;;;;;;;22.23;12.57;;;;;;;-0.25;66.14;100231.06;115359;1200;103078;-77
2021/04/27 02:29:52;;;;;;;25.40;13.93;;;;;;;-0.26;66.41;100235.33;115337;1198;103168;-77
2021/04/27 02:32:42;;;;;;;22.30;14.30;;;;;;;-0.31;65.92;100222.47;115256;1198;102990;-77
2021/04/27 02:35:30;;;;;;;21.90;13.40;;;;;;;-0.31;66.38;100222.47;115303;1199;103129;-78
2021/04/27 02:38:22;;;;;;;20.27;13.00;;;;;;;-0.32;66.71;100215.63;115352;1199;100734;-76
2021/04/27 02:41:09;;;;;;;21.57;13.03;;;;;;;-0.30;66.46;100223.33;115527;1199;103098;-77
2021/04/27 02:43:57;;;;;;;20.57;13.20;;;;;;;-0.31;66.62;100217.34;115313;1199;103133;-76
2021/04/27 02:46:45;;;;;;;22.68;13.25;;;;;;;-0.28;67.16;100215.66;115297;1200;103001;-77
2021/04/27 02:49:32;;;;;;;23.15;13.20;;;;;;;-0.26;66.36;100224.22;115277;1200;103063;-77
2021/04/27 02:52:22;;;;;;;22.50;13.20;;;;;;;-0.25;66.55;100221.67;115310;1198;103091;-76
2021/04/27 02:55:15;;;;;;;22.93;13.23;;;;;;;-0.27;67.03;100210.55;115319;1199;103043;-77
2021/04/27 02:58:02;;;;;;;21.83;13.33;;;;;;;-0.24;66.66;100223.39;115352;1199;103025;-77
2021/04/27 03:00:50;;;;;;;21.10;13.40;;;;;;;-0.23;66.31;100225.11;115336;1200;103008;-77
2021/04/27 03:03:37;;;;;;;21.20;13.60;;;;;;;-0.24;66.43;100219.97;115217;1199;103034;-76
2021/04/27 03:06:23;;;;;;;24.48;13.50;;;;;;;-0.23;66.75;100214.85;115279;1199;103015;-76
2021/04/27 03:09:21;;;;;;;21.23;12.33;;;;;;;-0.20;67.22;100220.01;115304;1199;103143;-76
2021/04/27 03:12:08;;;;;;;21.17;13.10;;;;;;;-0.17;67.01;100222.63;115300;1200;102977;-77
2021/04/27 03:14:57;;;;;;;20.10;12.50;;;;;;;-0.16;67.10;100226.91;115253;1199;103118;-76
2021/04/27 03:17:48;;;;;;;20.70;13.03;;;;;;;-0.15;66.73;100223.50;115261;1200;103133;-77
2021/04/27 03:20:35;;;;;;;25.45;13.18;;;;;;;-0.13;66.56;100232.06;115329;1199;102060;-76
2021/04/27 03:23:38;;;;;;;24.00;14.40;;;;;;;-0.11;66.83;100230.38;115356;1200;103012;-76
2021/04/27 03:26:25;;;;;;;22.50;13.73;;;;;;;-0.07;67.57;100234.69;115323;1200;103046;-76
2021/04/27 03:29:37;;;;;;;22.30;13.70;;;;;;;-0.06;66.43;100232.98;115277;1199;103018;-76
2021/04/27 03:32:24;;;;;;;24.87;14.80;;;;;;;-0.03;67.09;100244.13;115297;1198;103204;-76
2021/04/27 03:35:13;;;;;;;21.97;13.53;;;;;;;-0.04;66.68;100234.71;115287;1199;102137;-77
2021/04/27 03:38:01;;;;;;;19.57;13.00;;;;;;;-0.03;67.22;100236.43;115380;1199;102992;-77
2021/04/27 03:40:48;;;;;;;17.38;10.43;;;;;;;-0.02;66.95;100230.45;115261;1199;102992;-76
2021/04/27 03:43:40;;;;;;;19.60;13.10;;;;;;;0.04;67.12;100228.82;115321;1200;102995;-76
2021/04/27 03:46:26;;;;;;;21.37;12.77;;;;;;;0.08;66.82;100235.69;115404;1200;103098;-76
2021/04/27 03:49:13;;;;;;;21.10;13.30;;;;;;;0.11;67.38;100241.70;115330;1200;103040;-77
2021/04/27 03:51:59;;;;;;;22.87;15.27;;;;;;;0.14;67.30;100240.88;115397;1200;103101;-77
2021/04/27 03:54:46;;;;;;;25.05;14.58;;;;;;;0.17;66.59;100246.02;115316;1199;103091;-77
2021/04/27 03:57:32;;;;;;;22.10;14.07;;;;;;;0.19;66.81;100236.67;115326;1198;102989;-77
2021/04/27 04:00:21;;;;;;;22.75;14.35;;;;;;;0.22;66.45;100239.26;115525;1198;103015;-76
2021/04/27 04:03:08;;;;;;;22.33;14.33;;;;;;;0.27;66.96;100237.59;115335;1200;102992;-77
2021/04/27 04:05:56;;;;;;;20.83;12.97;;;;;;;0.32;66.91;100240.19;115358;1198;104677;-76
2021/04/27 04:09:09;;;;;;;20.50;13.60;;;;;;;0.36;67.28;100245.38;115430;1200;102955;-76
2021/04/27 04:12:14;;;;;;;24.37;14.10;;;;;;;0.40;66.33;100247.13;115412;1200;103017;-77
2021/04/27 04:15:00;;;;;;;19.57;13.20;;;;;;;0.41;66.25;100248.84;115337;1199;103098;-78
2021/04/27 04:17:50;;;;;;;21.10;14.75;;;;;;;0.44;66.94;100251.42;115295;1199;103437;-77
2021/04/27 04:20:37;;;;;;;26.40;14.40;;;;;;;0.52;66.42;100244.64;115378;1200;102988;-77
2021/04/27 04:23:39;;;;;;;21.40;13.93;;;;;;;0.57;66.19;100253.27;115298;1198;103175;-76
2021/04/27 04:26:26;;;;;;;21.93;13.97;;;;;;;0.68;66.88;100257.60;115337;1199;103095;-77
2021/04/27 04:29:31;;;;;;;21.13;12.93;;;;;;;0.79;66.67;100253.42;115517;1200;103059;-76
2021/04/27 04:32:36;;;;;;;20.73;13.60;;;;;;;0.94;66.58;100253.54;115368;1199;103066;-76
2021/04/27 04:35:42;;;;;;;23.17;14.60;;;;;;;1.13;66.11;100257.94;115388;1198;103114;-76
2021/04/27 04:38:47;;;;;;;23.80;14.75;;;;;;;1.57;66.13;100265.02;115260;1200;103047;-77
2021/04/27 04:41:52;;;;;;;22.43;14.03;;;;;;;2.33;66.39;100257.52;115362;1199;102967;-76
2021/04/27 04:44:57;;;;;;;21.40;13.17;;;;;;;3.50;66.07;100260.87;115546;1200;103059;-76
2021/04/27 04:48:02;;;;;;;39.93;22.20;;;;;;;6.54;63.90;100244.23;115508;1199;103209;-77
2021/04/27 04:51:17;;;;;;;23.27;13.80;;;;;;;9.74;58.47;100245.81;115231;1199;103024;-76
2021/04/27 04:54:12;;;;;;;18.45;10.80;;;;;;;12.39;54.33;100236.78;115465;1198;102857;-77
2021/04/27 04:56:59;;;;;;;16.03;10.80;;;;;;;14.50;49.39;100218.70;115504;1199;103034;-77
2021/04/27 04:59:46;;;;;;;15.00;10.05;;;;;;;16.25;45.90;100219.19;115282;1200;104643;-77
2021/04/27 05:02:32;;;;;;;14.63;9.13;;;;;;;17.75;42.50;100210.36;115340;1200;102034;-77
2021/04/27 05:05:42;;;;;;;15.20;9.85;;;;;;;19.29;39.20;100203.73;115416;1199;103134;-77
2021/04/27 05:08:52;;;;;;;13.07;9.60;;;;;;;20.55;36.56;100197.45;115410;1200;103673;-78
2021/04/27 05:11:51;;;;;;;11.60;8.25;;;;;;;21.94;34.61;100196.37;115355;1199;103023;-78
2021/04/27 05:15:08;;;;;;;9.90;7.20;;;;;;;23.04;32.00;100189.97;115414;1200;103123;-78
2021/04/27 05:17:54;;;;;;;10.10;7.43;;;;;;;24.07;30.84;100192.56;115307;1199;103024;-79
2021/04/27 05:20:41;;;;;;;9.35;7.23;;;;;;;24.99;28.85;100190.37;115502;1199;102995;-78
2021/04/27 05:23:28;;;;;;;;;;;;;;;25.75;27.52;100193.84;115308;1205;103046;-79
2021/04/27 05:26:14;;;;;;;9.25;7.00;;;;;;;26.44;26.37;100187.95;115307;1200;103053;-78
2021/04/27 05:29:02;;;;;;;12.10;7.63;;;;;;;27.17;24.97;100189.57;115490;1199;104155;-79
2021/04/27 05:31:49;;;;;;;12.05;7.30;;;;;;;27.84;23.91;100179.91;115210;1199;103222;-79
2021/04/27 05:34:35;;;;;;;;;;;;;;;28.50;23.19;100187.11;115325;1205;101277;-78
2021/04/27 05:37:22;;;;;;;8.17;4.77;;;;;;;29.14;21.96;100185.45;115489;1197;104220;-79
2021/04/27 05:40:09;;;;;;;7.85;4.93;;;;;;;29.47;20.54;100181.72;115553;1199;102829;-79
2021/04/27 05:42:56;;;;;;;9.93;5.23;;;;;;;30.16;20.11;100192.67;115317;1199;103133;-79
2021/04/27 05:45:43;;;;;;;10.25;6.63;;;;;;;30.75;19.59;100189.45;115289;1198;103014;-78
2021/04/27 05:48:30;;;;;;;10.10;5.50;;;;;;;30.80;18.42;100187.88;115320;1199;103094;-78
2021/04/27 05:51:16;;;;;;;6.55;5.85;;;;;;;31.00;17.89;100195.45;115295;1199;104176;-79
2021/04/27 05:54:02;;;;;;;8.95;5.73;;;;;;;31.66;17.54;100191.91;115352;1199;103120;-79
2021/04/27 05:56:49;;;;;;;8.00;4.83;;;;;;;32.06;16.97;100187.03;115331;1198;104283;-79
2021/04/27 05:59:35;;;;;;;9.60;4.65;;;;;;;32.48;16.48;100190.83;115286;1200;103062;-79
2021/04/27 06:02:22;;;;;;;;;;;;;;;32.93;16.09;100178.81;115376;1205;103139;-79
2021/04/27 06:05:10;;;;;;;8.45;3.60;;;;;;;33.24;15.61;100191.93;115264;1200;103213;-77
2021/04/27 06:07:56;;;;;;;4.10;3.00;;;;;;;33.59;15.12;100180.11;115287;1199;103089;-79
2021/04/27 06:10:43;;;;;;;5.80;4.10;;;;;;;33.88;14.68;100184.41;115372;1199;103087;-79
2021/04/27 06:13:29;;;;;;;3.43;2.43;;;;;;;33.79;13.52;100192.89;115328;1200;103156;-78
2021/04/27 06:16:15;;;;;;;3.80;2.75;;;;;;;33.97;13.16;100187.80;115497;1199;103015;-79
2021/04/27 06:19:02;;;;;;;;;;;;;;;34.14;12.77;100186.39;115434;1205;102977;-80
2021/04/27 06:21:48;;;;;;;4.43;2.30;;;;;;;33.61;12.31;100188.02;115502;1198;103047;-79
2021/04/27 06:24:35;;;;;;;4.85;2.00;;;;;;;33.31;12.70;100187.39;115348;1199;103057;-79
2021/04/27 06:27:38;;;;;;;2.70;2.00;;;;;;;33.83;12.33;100196.86;115550;1199;103162;-80
2021/04/27 06:30:24;;;;;;;4.53;2.13;;;;;;;34.51;12.16;100192.33;115457;1199;101514;-79
2021/04/27 06:33:11;;;;;;;7.60;3.00;;;;;;;35.11;11.86;100182.35;115470;1198;102982;-80
2021/04/27 06:35:57;;;;;;;5.70;2.50;;;;;;;35.53;11.42;100189.16;115464;1198;103054;-80
2021/04/27 06:38:44;;;;;;;6.13;2.37;;;;;;;35.40;11.33;100187.34;115387;1199;103083;-80
2021/04/27 06:41:32;;;;;;;3.30;2.20;;;;;;;35.68;11.22;100184.31;115370;1199;103078;-79
2021/04/27 06:44:18;;;;;;;2.50;2.00;;;;;;;35.55;10.57;100191.66;115352;1200;103413;-79
2021/04/27 06:47:06;;;;;;;3.87;3.03;;;;;;;35.82;11.23;100193.24;115296;1199;103152;-79
2021/04/27 06:49:54;;;;;;;2.55;1.90;;;;;;;36.17;10.53;100190.19;115385;1199;103191;-79
2021/04/27 06:52:41;;;;;;;1.63;1.37;;;;;;;36.37;9.99;100185.50;115288;1199;103024;-78
2021/04/27 06:55:27;;;;;;;3.55;1.60;;;;;;;36.35;9.72;100192.20;115418;1197;103034;-79
2021/04/27 06:58:16;;;;;;;4.15;2.30;;;;;;;36.49;9.32;100186.47;115412;1199;103503;-79
2021/04/27 07:01:03;;;;;;;3.07;2.03;;;;;;;36.01;9.33;100184.20;115509;1200;103140;-78
2021/04/27 07:03:50;;;;;;;2.00;1.77;;;;;;;35.59;9.62;100188.33;115207;1199;103034;-79
2021/04/27 07:06:37;;;;;;;2.10;1.60;;;;;;;35.31;9.72;100191.28;115394;1198;103150;-79
2021/04/27 07:09:23;;;;;;;1.90;1.30;;;;;;;34.80;8.96;100189.20;115345;1199;103475;-78
2021/04/27 07:12:10;;;;;;;1.83;1.50;;;;;;;34.77;9.38;100189.63;115497;1199;103159;-79
2021/04/27 07:14:56;;;;;;;2.27;1.43;;;;;;;35.18;9.21;100196.72;115371;1199;103108;-79
2021/04/27 07:17:44;;;;;;;2.70;1.90;;;;;;;35.33;9.52;100186.47;115330;1200;103555;-79
2021/04/27 07:20:30;;;;;;;2.23;1.70;;;;;;;35.62;9.37;100189.78;115285;1199;103031;-79
2021/04/27 07:23:18;;;;;;;4.97;1.80;;;;;;;35.84;8.68;100191.17;115550;1199;103049;-79
2021/04/27 07:26:07;;;;;;;3.00;1.80;;;;;;;35.18;9.04;100191.30;115339;1199;103207;-79
2021/04/27 07:28:53;;;;;;;2.30;2.00;;;;;;;34.41;9.29;100191.88;115244;1199;103255;-79
2021/04/27 07:31:41;;;;;;;2.17;1.43;;;;;;;34.41;9.08;100191.88;115357;1198;103149;-79
2021/04/27 07:34:28;;;;;;;2.60;1.80;;;;;;;34.20;8.84;100204.52;115531;1198;103089;-79
2021/04/27 07:37:14;;;;;;;2.20;1.55;;;;;;;34.16;9.08;100208.67;115493;1199;101066;-79
2021/04/27 07:40:00;;;;;;;3.90;1.70;;;;;;;34.10;8.67;100201.34;115314;1199;103114;-79
2021/04/27 07:42:47;;;;;;;3.50;1.80;;;;;;;34.04;8.81;100198.63;115327;1200;103297;-79
2021/04/27 07:45:34;;;;;;;1.90;1.57;;;;;;;33.63;8.52;100188.66;115288;1199;103168;-79
2021/04/27 07:48:20;;;;;;;1.50;1.40;;;;;;;31.74;8.78;100199.91;115391;1200;103207;-80
2021/04/27 07:51:07;;;;;;;1.57;1.47;;;;;;;30.07;9.97;100210.72;115391;1198;103171;-79
2021/04/27 07:53:53;;;;;;;;;;;;;;;30.17;10.23;100199.76;115332;1205;103034;-79
2021/04/27 07:56:40;;;;;;;4.00;1.53;;;;;;;28.22;10.46;100206.16;115328;1199;103095;-80
2021/04/27 07:59:26;;;;;;;;;;;;;;;25.68;11.21;100224.81;115347;1205;103105;-79
2021/04/27 08:02:12;;;;;;;2.10;1.40;;;;;;;23.84;12.19;100231.02;115261;1200;103130;-79
2021/04/27 08:04:58;;;;;;;3.10;1.90;;;;;;;22.71;13.22;100228.19;115360;1199;103007;-79
2021/04/27 08:07:44;;;;;;;4.53;1.77;;;;;;;22.38;13.54;100225.64;115334;1199;103124;-79
2021/04/27 08:10:31;;;;;;;2.03;1.53;;;;;;;23.33;13.68;100224.72;115239;1199;103014;-79
2021/04/27 08:13:18;;;;;;;2.03;1.58;;;;;;;24.75;13.42;100220.13;115301;1198;103052;-80
2021/04/27 08:16:04;;;;;;;2.70;1.50;;;;;;;26.15;12.57;100217.52;115545;1200;102879;-79
2021/04/27 08:18:51;;;;;;;;;;;;;;;27.07;12.45;100221.78;115522;1204;105158;-79
2021/04/27 08:21:39;;;;;;;;;;;;;;;27.73;11.96;100221.22;115395;1204;103120;-79
2021/04/27 08:24:25;;;;;;;2.73;1.50;;;;;;;28.17;11.60;100213.84;115320;1198;103117;-78
2021/04/27 08:27:29;;;;;;;1.70;1.50;;;;;;;28.70;11.61;100217.98;115449;1199;103053;-80
2021/04/27 08:30:17;;;;;;;;;;;;;;;29.22;11.25;100219.51;115370;1200;103031;-79
2021/04/27 08:33:03;;;;;;;2.70;1.57;;;;;;;29.10;11.69;100213.67;115292;1199;103033;-79
2021/04/27 08:35:50;;;;;;;3.20;1.70;;;;;;;28.98;11.49;100207.80;115344;1199;103484;-79
2021/04/27 08:38:38;;;;;;;2.65;1.90;;;;;;;29.10;10.99;100208.30;115328;1198;103081;-79
2021/04/27 08:41:26;;;;;;;2.83;2.23;;;;;;;27.74;11.52;100205.98;115370;1198;102985;-79
2021/04/27 08:44:12;;;;;;;1.70;1.60;;;;;;;25.99;11.84;100213.81;115309;1200;103028;-79
2021/04/27 08:46:59;;;;;;;2.60;1.60;;;;;;;24.80;12.30;100212.58;115357;1200;102999;-78
2021/04/27 08:49:46;;;;;;;3.70;1.75;;;;;;;23.46;13.04;100220.03;115532;1199;103050;-78
2021/04/27 08:52:34;;;;;;;2.10;1.80;;;;;;;23.13;12.87;100214.94;115289;1199;103139;-81
2021/04/27 08:55:21;;;;;;;2.90;2.00;;;;;;;22.09;14.21;100226.20;115423;1198;103573;-79
2021/04/27 08:58:10;;;;;;;3.35;2.15;;;;;;;20.74;14.23;100222.47;115384;1199;103108;-80
2021/04/27 09:00:56;;;;;;;3.30;2.10;;;;;;;19.67;14.99;100239.94;115459;1200;104673;-79
2021/04/27 09:03:44;;;;;;;2.55;1.70;;;;;;;19.26;16.22;100237.48;115509;1199;103043;-80
2021/04/27 09:06:31;;;;;;;2.80;1.80;;;;;;;19.57;15.95;100238.91;115460;1198;103158;-80
2021/04/27 09:09:38;;;;;;;2.67;1.73;;;;;;;19.95;16.10;100236.20;115490;1199;103494;-80
2021/04/27 09:12:28;;;;;;;3.07;1.63;;;;;;;20.75;15.97;100225.97;115483;1200;103008;-80
2021/04/27 09:15:35;;;;;;;5.50;1.90;;;;;;;21.19;15.23;100224.42;115448;1200;101821;-80
2021/04/27 09:18:23;;;;;;;3.40;1.80;;;;;;;20.46;15.52;100231.59;115498;1199;103041;-79
2021/04/27 09:21:10;;;;;;;2.00;1.70;;;;;;;19.66;15.97;100232.11;115452;1197;102967;-79
2021/04/27 09:23:56;;;;;;;2.50;1.75;;;;;;;18.93;16.55;100227.39;115491;1199;103017;-79
2021/04/27 09:26:52;;;;;;;5.60;1.90;;;;;;;18.12;16.75;100232.64;115669;1199;103015;-79
2021/04/27 09:29:43;;;;;;;2.70;2.00;;;;;;;17.20;17.70;100235.64;115452;1198;103060;-79
2021/04/27 09:32:40;;;;;;;2.13;1.90;;;;;;;17.12;18.53;100234.41;115378;1199;103011;-79
2021/04/27 09:35:46;;;;;;;1.90;1.60;;;;;;;17.34;18.62;100242.73;115419;1198;104149;-79
2021/04/27 09:38:33;;;;;;;2.33;1.47;;;;;;;17.73;18.14;100228.92;115405;1200;104277;-80
2021/04/27 09:41:24;;;;;;;2.33;1.80;;;;;;;17.89;18.30;100228.82;115535;1199;103134;-80
2021/04/27 09:44:25;;;;;;;2.30;1.70;;;;;;;18.78;17.66;100223.13;115493;1198;100821;-79
2021/04/27 09:47:31;;;;;;;2.10;1.80;;;;;;;18.62;17.52;100223.25;115404;1200;102328;-79
2021/04/27 09:50:19;;;;;;;3.33;1.60;;;;;;;18.41;17.26;100222.86;115551;1200;103162;-79
2021/04/27 09:53:05;;;;;;;2.13;1.40;;;;;;;17.85;17.34;100224.69;115544;1199;103079;-79
2021/04/27 09:55:52;;;;;;;2.90;2.10;;;;;;;17.19;17.77;100226.03;115418;1199;103124;-80
2021/04/27 09:58:38;;;;;;;3.65;2.40;;;;;;;16.87;18.32;100224.45;115423;1199;104239;-78
2021/04/27 10:01:24;;;;;;;2.47;2.27;;;;;;;16.57;19.06;100220.00;115282;1199;103117;-78
2021/04/27 10:04:11;;;;;;;2.53;1.93;;;;;;;16.06;18.89;100223.78;115276;1199;102995;-78
2021/04/27 10:07:00;;;;;;;6.63;3.60;;;;;;;16.03;19.43;100231.84;115308;1200;103117;-79
2021/04/27 10:09:47;;;;;;;2.20;1.67;;;;;;;16.50;19.29;100221.27;115337;1200;103063;-78
2021/04/27 10:12:35;;;;;;;2.40;1.70;;;;;;;16.20;19.34;100228.28;115324;1199;102970;-77
2021/04/27 10:15:21;;;;;;;2.70;1.60;;;;;;;15.67;19.24;100227.64;115543;1199;103139;-77
2021/04/27 10:18:11;;;;;;;3.17;1.80;;;;;;;14.92;19.76;100229.80;115265;1199;103075;-78
2021/04/27 10:21:03;;;;;;;3.45;1.90;;;;;;;14.36;21.08;100234.26;115561;1198;103114;-80
2021/04/27 10:23:52;;;;;;;2.67;1.83;;;;;;;13.75;21.48;100239.72;115550;1199;103043;-81
2021/04/27 10:26:42;;;;;;;3.35;2.30;;;;;;;13.23;22.47;100239.39;115515;1199;101989;-80
2021/04/27 10:29:29;;;;;;;2.13;1.80;;;;;;;12.85;22.70;100237.52;115541;1198;103001;-81
2021/04/27 10:32:26;;;;;;;3.17;1.83;;;;;;;12.42;23.02;100236.66;115460;1200;103274;-77
2021/04/27 10:35:13;;;;;;;2.83;1.73;;;;;;;11.95;23.42;100236.73;115389;1200;103012;-77
2021/04/27 10:38:01;;;;;;;4.98;2.03;;;;;;;11.44;24.17;100234.23;115506;1196;103126;-78
2021/04/27 10:41:01;;;;;;;2.75;1.90;;;;;;;11.17;24.46;100231.70;115561;1196;103027;-78
2021/04/27 10:44:00;;;;;;;2.10;1.63;;;;;;;11.42;25.04;100230.83;115564;1196;102999;-77
2021/04/27 10:46:50;;;;;;;5.20;2.00;;;;;;;11.88;24.67;100229.19;115549;1196;103168;-78
2021/04/27 10:49:43;;;;;;;2.50;1.90;;;;;;;12.07;24.44;100228.42;115555;1196;103022;-76
2021/04/27 10:52:36;;;;;;;4.43;3.10;;;;;;;12.40;24.28;100222.79;115525;1196;103037;-78
2021/04/27 10:55:29;;;;;;;2.80;1.77;;;;;;;12.55;23.56;100221.30;115573;1196;103094;-78
2021/04/27 10:58:46;;;;;;;2.13;1.67;;;;;;;12.48;23.61;100219.86;115599;1196;103127;-78
2021/04/27 11:01:33;;;;;;;4.03;1.70;;;;;;;12.60;23.60;100214.14;115505;1196;103155;-78
2021/04/27 11:04:27;;;;;;;2.47;1.70;;;;;;;12.60;23.11;100211.52;115576;1196;103535;-78
2021/04/27 11:07:16;;;;;;;1.95;1.70;;;;;;;12.66;23.77;100213.88;115590;1196;103350;-78
2021/04/27 11:10:04;;;;;;;2.50;1.80;;;;;;;12.67;23.68;100208.58;115585;1196;103094;-77
2021/04/27 11:13:12;;;;;;;2.65;1.90;;;;;;;12.60;24.05;100204.52;115608;1196;103463;-77
2021/04/27 11:15:59;;;;;;;2.63;1.93;;;;;;;12.54;24.00;100206.52;115551;1196;103081;-78
2021/04/27 11:18:46;;;;;;;3.00;2.00;;;;;;;12.44;24.37;100211.28;115582;1196;103001;-78
2021/04/27 11:21:33;;;;;;;2.35;1.80;;;;;;;12.35;24.43;100209.02;115597;1196;102982;-78
2021/04/27 11:24:39;;;;;;;4.63;2.10;;;;;;;12.29;24.35;100209.28;115644;1196;101373;-78
2021/04/27 11:27:25;;;;;;;2.77;1.83;;;;;;;12.25;24.42;100205.94;115601;1196;103034;-78
2021/04/27 11:30:14;;;;;;;2.20;1.70;;;;;;;12.24;24.81;100211.23;115586;1196;103156;-79
2021/04/27 11:33:06;;;;;;;2.05;1.40;;;;;;;12.30;24.54;100205.75;115590;1196;102983;-79
2021/04/27 11:35:53;;;;;;;2.20;1.67;;;;;;;12.27;24.44;100205.88;115618;1196;103162;-78
2021/04/27 11:38:49;;;;;;;2.60;1.80;;;;;;;12.29;24.43;100198.82;115627;1196;103203;-79
2021/04/27 11:41:46;;;;;;;2.60;1.70;;;;;;;12.27;24.46;100205.88;115642;1196;103028;-79
2021/04/27 11:44:39;;;;;;;3.33;1.70;;;;;;;12.26;24.69;100197.19;115617;1196;103201;-79
2021/04/27 11:47:25;;;;;;;3.00;1.50;;;;;;;12.33;24.40;100196.02;115637;1196;103009;-79
2021/04/27 11:50:14;;;;;;;2.70;1.53;;;;;;;12.35;24.25;100195.95;115607;1196;103118;-79
2021/04/27 11:53:03;;;;;;;2.50;1.70;;;;;;;12.42;24.61;100199.19;115647;1196;103037;-79
2021/04/27 11:55:51;;;;;;;2.63;1.97;;;;;;;12.60;24.77;100201.91;115641;1196;103070;-79
2021/04/27 11:58:39;;;;;;;2.48;1.95;;;;;;;12.75;24.32;100194.31;115592;1196;102970;-80
2021/04/27 12:01:25;;;;;;;3.20;2.40;;;;;;;12.89;24.50;100200.67;115625;1196;103468;-78
2021/04/27 12:04:11;;;;;;;2.40;1.70;;;;;;;12.98;24.25;100194.21;115607;1196;103100;-78
2021/04/27 12:07:02;;;;;;;2.25;1.85;;;;;;;12.98;23.58;100188.97;115654;1195;103166;-79
2021/04/27 12:09:49;;;;;;;3.60;2.30;;;;;;;13.19;24.20;100182.83;115593;1194;103152;-79
2021/04/27 12:12:35;;;;;;;2.75;1.85;;;;;;;13.66;24.00;100190.34;115612;1196;103494;-79
2021/04/27 12:15:22;;;;;;;2.85;1.70;;;;;;;13.96;23.56;100181.97;115427;1196;102909;-79
2021/04/27 12:18:09;;;;;;;2.43;2.00;;;;;;;14.09;23.25;100181.32;115644;1196;103057;-80
2021/04/27 12:20:56;;;;;;;4.30;2.10;;;;;;;14.17;23.26;100173.92;115597;1196;103083;-79
2021/04/27 12:23:43;;;;;;;3.90;2.90;;;;;;;14.31;23.22;100172.41;115419;1196;101321;-79
2021/04/27 12:26:30;;;;;;;2.10;1.90;;;;;;;14.60;22.92;100181.52;115577;1197;102986;-79
2021/04/27 12:29:27;;;;;;;1.83;1.70;;;;;;;14.76;22.82;100182.46;115617;1196;103504;-79
2021/04/27 12:32:18;;;;;;;3.10;1.90;;;;;;;14.58;22.49;100172.88;115580;1196;103069;-80
2021/04/27 12:35:06;;;;;;;2.25;1.70;;;;;;;14.17;21.95;100184.41;115653;1196;103443;-79
2021/04/27 12:38:13;;;;;;;3.10;1.93;;;;;;;13.91;22.13;100176.95;115635;1196;102418;-79
2021/04/27 12:41:01;;;;;;;1.90;1.70;;;;;;;13.53;22.56;100181.34;115518;1196;102979;-80
2021/04/27 12:43:47;;;;;;;5.23;2.00;;;;;;;13.40;22.65;100174.94;115685;1196;102810;-79
2021/04/27 12:46:47;;;;;;;2.43;1.90;;;;;;;13.32;23.01;100182.30;115728;1196;103092;-79
2021/04/27 12:49:34;;;;;;;5.60;1.70;;;;;;;13.09;23.24;100175.40;115691;1196;103108;-80
2021/04/27 12:52:20;;;;;;;2.20;1.80;;;;;;;12.94;22.98;100176.94;115630;1196;103021;-79